Terminal Aerodrome Forecast
Issued by NWS Bismarck, ND

Home | Current Version | Previous Version | Graphics & Text | Print | Product List | Glossary On
Versions: 1 2 3 4 5 6 7 8 9 10 11 12 13 14 15 16 17 18 19 20 21 22 23 24 25 26
371
FTUS43 KBIS 271422 AAB
TAFBIS
TAF AMD
KBIS 271422Z 2714/2812 00000KT P6SM SCT025 BKN200
      TEMPO 2714/2716 BKN025
     FM271600 05006KT P6SM BKN050
     FM271800 05008KT P6SM BKN080=

USA.gov is the U.S. government's official web portal to all federal, state and local government web resources and services.